Time;durP1;ratioP1;P1;durP2;ratioP2;P2;SDS_P1;SDS_P2;PMS_P1;PMS_P2;Temp;Humidity;BMP_temperature;BMP_pressure;BME280_temperature;BME280_humidity;BME280_pressure;Samples;Min_cycle;Max_cycle;Signal;HPM_P1;HPM_P2
2023/12/03 00:05:14;;;;;;;1.90;1.00;;;7.40;99.90;;;;;;4965095;28;20011;-77
2023/12/03 00:07:40;;;;;;;1.80;1.17;;;7.40;99.90;;;;;;4964319;29;20439;-78
2023/12/03 00:10:07;;;;;;;2.00;1.33;;;7.40;99.90;;;;;;5027856;28;20041;-78
2023/12/03 00:12:33;;;;;;;2.47;1.43;;;7.40;99.90;;;;;;5056211;28;20405;-78
2023/12/03 00:14:58;;;;;;;2.40;1.53;;;7.40;99.90;;;;;;5055701;28;20041;-77
2023/12/03 00:17:24;;;;;;;2.10;1.33;;;7.40;99.90;;;;;;5055651;28;20024;-78
2023/12/03 00:19:50;;;;;;;4.97;1.30;;;7.50;99.90;;;;;;5055693;28;20068;-78
2023/12/03 00:22:16;;;;;;;2.27;1.20;;;7.50;99.90;;;;;;5055824;28;20025;-78
2023/12/03 00:24:42;;;;;;;2.43;1.07;;;7.50;99.90;;;;;;5054310;28;20067;-78
2023/12/03 00:27:07;;;;;;;2.50;1.20;;;7.50;99.90;;;;;;5055420;28;20041;-78
2023/12/03 00:29:33;;;;;;;1.80;1.17;;;7.50;99.90;;;;;;5055471;28;20032;-78
2023/12/03 00:31:59;;;;;;;1.50;1.10;;;7.50;99.90;;;;;;5055570;28;20047;-78
2023/12/03 00:34:25;;;;;;;2.30;1.00;;;7.40;99.90;;;;;;5055542;28;20029;-78
2023/12/03 00:36:50;;;;;;;3.10;0.93;;;7.40;99.90;;;;;;5055224;28;20041;-78
2023/12/03 00:39:16;;;;;;;1.83;1.30;;;7.40;99.90;;;;;;5055406;28;20037;-78
2023/12/03 00:41:42;;;;;;;1.40;1.00;;;7.50;99.90;;;;;;5055260;28;20040;-78
2023/12/03 00:44:08;;;;;;;1.90;1.20;;;7.40;99.90;;;;;;5055514;28;20083;-78
2023/12/03 00:46:33;;;;;;;2.13;1.13;;;7.40;99.90;;;;;;5054959;28;20037;-78
2023/12/03 00:48:59;;;;;;;1.23;1.00;;;7.40;99.90;;;;;;5054776;28;20037;-77
2023/12/03 00:51:25;;;;;;;2.07;1.23;;;7.40;99.90;;;;;;5055262;28;20040;-77
2023/12/03 00:53:51;;;;;;;1.50;1.03;;;7.40;99.90;;;;;;5063847;28;20036;-78
2023/12/03 00:56:16;;;;;;;2.10;1.27;;;7.40;99.90;;;;;;5075134;28;20028;-78
2023/12/03 00:58:42;;;;;;;2.27;1.13;;;7.30;99.90;;;;;;5074735;28;20055;-78
2023/12/03 01:01:09;;;;;;;1.30;1.00;;;7.30;99.90;;;;;;5074932;28;20484;-78
2023/12/03 01:03:34;;;;;;;2.50;1.10;;;7.40;99.90;;;;;;5074904;28;20036;-78
2023/12/03 01:06:00;;;;;;;2.07;0.80;;;7.30;99.90;;;;;;5074666;28;20047;-78
2023/12/03 01:08:26;;;;;;;2.37;0.70;;;7.30;99.90;;;;;;5075578;28;20074;-78
2023/12/03 01:10:52;;;;;;;1.20;0.83;;;7.30;99.90;;;;;;5075440;28;20033;-77
2023/12/03 01:13:18;;;;;;;1.93;0.90;;;7.30;99.90;;;;;;5056047;28;20514;-78
2023/12/03 01:15:45;;;;;;;1.23;0.70;;;7.30;99.90;;;;;;5075212;28;20049;-78
2023/12/03 01:18:11;;;;;;;1.23;0.70;;;7.30;99.30;;;;;;5075073;28;20041;-78
2023/12/03 01:20:40;;;;;;;1.10;0.70;;;7.30;98.90;;;;;;5074483;28;20052;-78
2023/12/03 01:23:06;;;;;;;0.90;0.73;;;7.30;99.10;;;;;;5074619;28;20107;-78
2023/12/03 01:25:32;;;;;;;1.00;0.70;;;7.20;99.20;;;;;;5074613;28;20071;-78
2023/12/03 01:28:04;;;;;;;1.00;0.70;;;7.20;98.90;;;;;;5074232;28;20064;-78
2023/12/03 01:30:30;;;;;;;1.25;0.70;;;7.20;98.60;;;;;;5075070;28;20396;-78
2023/12/03 01:32:58;;;;;;;0.77;0.60;;;7.10;98.60;;;;;;5074367;28;20032;-78
2023/12/03 01:35:24;;;;;;;1.63;0.70;;;7.10;98.40;;;;;;5074759;28;20033;-77
2023/12/03 01:37:50;;;;;;;0.70;0.57;;;7.10;97.20;;;;;;5074662;28;20041;-78
2023/12/03 01:40:19;;;;;;;0.77;0.60;;;7.10;97.40;;;;;;5074377;28;20055;-77
2023/12/03 01:42:45;;;;;;;1.07;0.73;;;7.10;97.10;;;;;;5074282;28;20032;-77
2023/12/03 01:45:11;;;;;;;1.10;0.80;;;7.10;97.30;;;;;;5074541;28;20037;-79
2023/12/03 01:47:38;;;;;;;1.17;0.87;;;7.10;97.00;;;;;;5056528;28;20446;-78
2023/12/03 01:50:09;;;;;;;1.70;1.00;;;7.10;97.00;;;;;;5056302;28;20439;-78
2023/12/03 01:52:35;;;;;;;1.50;0.77;;;7.10;96.60;;;;;;5074338;28;20474;-78
2023/12/03 01:55:03;;;;;;;1.20;1.00;;;7.10;96.30;;;;;;5074279;28;20067;-78
2023/12/03 01:57:30;;;;;;;1.10;0.73;;;7.00;96.70;;;;;;5075707;28;20045;-78
2023/12/03 01:59:56;;;;;;;1.77;0.90;;;7.00;96.90;;;;;;5086869;28;20152;-78
2023/12/03 02:02:22;;;;;;;1.60;1.00;;;6.90;96.70;;;;;;5085532;28;20048;-78
2023/12/03 02:04:48;;;;;;;1.30;0.90;;;6.90;96.90;;;;;;5086539;28;20477;-77
2023/12/03 02:07:14;;;;;;;1.77;1.03;;;6.90;96.80;;;;;;5087171;28;20507;-78
2023/12/03 02:09:41;;;;;;;1.10;1.00;;;6.90;96.40;;;;;;5073918;28;20103;-77
2023/12/03 02:12:07;;;;;;;2.57;1.10;;;6.90;96.50;;;;;;5073495;28;20037;-78
2023/12/03 02:14:33;;;;;;;1.60;1.10;;;6.80;96.70;;;;;;5072966;28;20051;-78
2023/12/03 02:16:59;;;;;;;1.33;0.97;;;6.80;96.70;;;;;;5073602;28;20032;-77
2023/12/03 02:19:27;;;;;;;2.10;1.10;;;6.80;96.80;;;;;;5073293;28;20080;-77
2023/12/03 02:21:53;;;;;;;1.70;1.00;;;6.70;96.70;;;;;;5073013;28;20489;-78
2023/12/03 02:24:18;;;;;;;2.30;1.50;;;6.70;96.70;;;;;;5073473;28;20028;-77
2023/12/03 02:26:44;;;;;;;1.80;1.23;;;6.70;96.80;;;;;;5073474;28;20036;-77
2023/12/03 02:29:10;;;;;;;2.43;1.27;;;6.60;97.10;;;;;;5073141;28;20063;-78
2023/12/03 02:31:36;;;;;;;1.73;1.10;;;6.60;97.00;;;;;;5073404;28;20086;-77
2023/12/03 02:34:07;;;;;;;1.30;1.00;;;6.60;96.60;;;;;;5073427;28;20028;-77
2023/12/03 02:36:33;;;;;;;2.17;1.17;;;6.60;96.90;;;;;;5072996;28;20060;-78
2023/12/03 02:38:59;;;;;;;3.60;1.00;;;6.60;97.00;;;;;;5073123;28;20487;-77
2023/12/03 02:41:25;;;;;;;1.80;1.30;;;6.70;96.70;;;;;;5072911;28;20499;-78
2023/12/03 02:43:51;;;;;;;1.80;1.27;;;6.60;95.90;;;;;;5073119;28;20045;-77
2023/12/03 02:46:17;;;;;;;1.80;1.20;;;6.70;95.60;;;;;;5073825;28;20488;-77
2023/12/03 02:48:43;;;;;;;1.90;1.30;;;6.70;96.00;;;;;;5073963;28;20106;-78
2023/12/03 02:51:09;;;;;;;1.30;1.00;;;6.60;95.70;;;;;;5073633;28;20033;-78
2023/12/03 02:53:42;;;;;;;1.67;1.10;;;6.70;95.50;;;;;;5073611;28;20425;-78
2023/12/03 02:56:09;;;;;;;1.47;1.20;;;6.70;94.80;;;;;;5073735;28;20040;-77
2023/12/03 02:58:41;;;;;;;2.07;1.20;;;6.70;94.60;;;;;;5071826;28;20043;-77
2023/12/03 03:01:07;;;;;;;1.83;1.30;;;6.60;94.50;;;;;;5073479;28;20024;-78
2023/12/03 03:03:33;;;;;;;1.90;1.20;;;6.60;94.80;;;;;;5072943;28;20036;-77
2023/12/03 03:05:59;;;;;;;1.80;1.20;;;6.60;95.10;;;;;;5073004;28;20032;-77
2023/12/03 03:08:25;;;;;;;1.60;1.20;;;6.60;95.10;;;;;;5072396;28;20098;-78
2023/12/03 03:10:54;;;;;;;2.87;1.20;;;6.60;94.60;;;;;;5072963;28;20039;-78
2023/12/03 03:13:19;;;;;;;1.67;1.23;;;6.60;94.20;;;;;;5067973;28;20033;-77
2023/12/03 03:15:49;;;;;;;1.77;1.10;;;6.60;94.50;;;;;;5052130;28;20043;-78
2023/12/03 03:18:17;;;;;;;2.33;1.37;;;6.50;94.40;;;;;;5052237;28;20063;-77
2023/12/03 03:20:53;;;;;;;2.60;1.80;;;6.50;94.40;;;;;;5034466;28;20033;-78
2023/12/03 03:23:30;;;;;;;1.73;0.93;;;6.50;94.70;;;;;;5051878;28;20033;-77
2023/12/03 03:25:58;;;;;;;1.57;1.10;;;6.50;94.40;;;;;;5034451;28;20037;-77
2023/12/03 03:28:24;;;;;;;2.30;1.40;;;6.50;94.50;;;;;;5052566;28;20052;-77
2023/12/03 03:30:52;;;;;;;1.90;1.20;;;6.40;94.70;;;;;;5052673;28;20034;-78
2023/12/03 03:33:18;;;;;;;1.90;1.30;;;6.40;94.70;;;;;;5052901;28;20021;-77
2023/12/03 03:35:44;;;;;;;1.60;1.20;;;6.40;94.70;;;;;;5054412;28;20056;-78
2023/12/03 03:38:09;;;;;;;1.43;1.00;;;6.50;94.70;;;;;;5038581;28;20036;-77
2023/12/03 03:40:35;;;;;;;1.60;1.30;;;6.40;94.60;;;;;;5056387;28;20029;-77
2023/12/03 03:43:01;;;;;;;1.87;1.50;;;6.50;94.60;;;;;;5056552;28;20116;-78
2023/12/03 03:45:26;;;;;;;2.23;1.17;;;6.50;94.50;;;;;;5056640;28;20021;-78
2023/12/03 03:47:52;;;;;;;2.27;1.03;;;6.50;94.60;;;;;;5038460;28;20045;-77
2023/12/03 03:50:19;;;;;;;1.27;1.07;;;6.40;94.30;;;;;;5056256;28;20036;-78
2023/12/03 03:52:44;;;;;;;1.90;1.30;;;6.50;94.20;;;;;;5056238;28;20029;-77
2023/12/03 03:55:10;;;;;;;2.47;1.50;;;6.50;94.00;;;;;;5056220;28;20112;-77
2023/12/03 03:57:36;;;;;;;2.40;1.37;;;6.50;93.70;;;;;;5056242;28;20063;-77
2023/12/03 04:00:02;;;;;;;2.13;1.40;;;6.50;93.80;;;;;;5056118;28;20037;-77
2023/12/03 04:02:28;;;;;;;1.47;1.10;;;6.50;93.50;;;;;;5056386;28;20043;-77
2023/12/03 04:04:54;;;;;;;1.43;1.10;;;6.50;93.50;;;;;;5056203;28;20040;-77
2023/12/03 04:07:20;;;;;;;1.70;1.10;;;6.50;93.50;;;;;;5055965;28;20098;-78
2023/12/03 04:09:46;;;;;;;2.43;1.20;;;6.50;93.60;;;;;;5038081;28;20029;-78
2023/12/03 04:12:12;;;;;;;1.80;1.20;;;6.50;93.40;;;;;;5055554;28;20037;-77
2023/12/03 04:14:38;;;;;;;1.67;1.27;;;6.50;93.40;;;;;;5050639;28;20072;-77
2023/12/03 04:17:03;;;;;;;2.10;1.40;;;6.50;93.40;;;;;;5075827;28;20029;-77
2023/12/03 04:19:29;;;;;;;2.07;1.27;;;6.50;93.30;;;;;;5075858;28;20052;-77
2023/12/03 04:21:55;;;;;;;2.47;1.33;;;6.50;93.60;;;;;;5075685;28;20036;-77
2023/12/03 04:24:21;;;;;;;1.50;1.10;;;6.60;93.20;;;;;;5075757;28;20037;-78
2023/12/03 04:26:47;;;;;;;1.43;1.13;;;6.60;92.20;;;;;;5076177;28;20039;-77
2023/12/03 04:29:13;;;;;;;1.20;0.93;;;6.60;91.70;;;;;;5076449;28;20041;-77
2023/12/03 04:31:39;;;;;;;1.70;1.10;;;6.60;91.50;;;;;;5076515;28;20029;-78
2023/12/03 04:34:14;;;;;;;1.63;1.00;;;6.60;90.90;;;;;;5058104;28;20108;-77
2023/12/03 04:36:42;;;;;;;2.33;1.23;;;6.60;90.80;;;;;;5075898;28;20032;-77
2023/12/03 04:39:09;;;;;;;2.20;1.30;;;6.60;88.70;;;;;;5075805;28;20124;-77
2023/12/03 04:41:39;;;;;;;1.93;1.40;;;6.60;90.00;;;;;;5057585;28;20039;-77
2023/12/03 04:44:22;;;;;;;1.03;0.80;;;6.60;90.10;;;;;;5074829;28;20569;-77
2023/12/03 04:46:48;;;;;;;2.07;1.23;;;6.50;89.70;;;;;;5065542;28;20377;-77
2023/12/03 04:49:14;;;;;;;1.50;1.10;;;6.50;90.10;;;;;;5077295;28;20047;-77
2023/12/03 04:51:43;;;;;;;1.93;1.20;;;6.50;90.40;;;;;;5075252;28;20506;-77
2023/12/03 04:54:09;;;;;;;1.97;1.20;;;6.50;90.80;;;;;;5075296;28;20040;-77
2023/12/03 04:56:34;;;;;;;1.53;0.90;;;6.50;90.10;;;;;;5056842;28;20040;-77
2023/12/03 04:59:00;;;;;;;1.73;1.10;;;6.50;90.10;;;;;;5057003;28;20439;-77
2023/12/03 05:01:29;;;;;;;1.37;1.00;;;6.50;89.70;;;;;;5074694;28;20043;-77
2023/12/03 05:03:57;;;;;;;1.67;1.10;;;6.50;89.20;;;;;;5074840;28;20112;-76
2023/12/03 05:06:23;;;;;;;1.27;0.80;;;6.40;89.70;;;;;;5057243;28;20028;-78
2023/12/03 05:08:49;;;;;;;1.80;0.97;;;6.50;88.50;;;;;;5075027;28;20131;-77
2023/12/03 05:11:15;;;;;;;1.70;1.03;;;6.50;86.90;;;;;;5074673;28;20530;-78
2023/12/03 05:13:40;;;;;;;1.47;0.93;;;6.40;87.40;;;;;;5074815;28;20057;-77
2023/12/03 05:16:07;;;;;;;3.20;1.17;;;6.50;88.10;;;;;;5075060;28;20025;-77
2023/12/03 05:18:32;;;;;;;1.40;1.07;;;6.50;88.70;;;;;;5074874;28;20068;-77
2023/12/03 05:20:58;;;;;;;1.40;1.10;;;6.50;86.50;;;;;;5074459;28;20060;-77
2023/12/03 05:23:25;;;;;;;1.60;1.10;;;6.50;86.00;;;;;;5074508;28;20028;-77
2023/12/03 05:25:51;;;;;;;1.63;1.10;;;6.40;86.00;;;;;;5074427;28;20089;-77
2023/12/03 05:28:17;;;;;;;2.13;1.10;;;6.50;84.50;;;;;;5073903;28;20083;-77
2023/12/03 05:30:43;;;;;;;1.50;1.27;;;6.50;82.80;;;;;;5074135;28;20036;-77
2023/12/03 05:33:09;;;;;;;1.70;1.13;;;6.50;82.30;;;;;;5073979;28;20052;-77
2023/12/03 05:35:35;;;;;;;2.90;1.10;;;6.40;82.50;;;;;;5056168;28;20412;-77
2023/12/03 05:38:01;;;;;;;1.70;1.00;;;6.40;83.20;;;;;;5074340;28;20040;-77
2023/12/03 05:40:27;;;;;;;1.37;1.00;;;6.40;82.60;;;;;;5074490;28;20128;-77
2023/12/03 05:42:52;;;;;;;1.70;1.13;;;6.40;80.70;;;;;;5074363;28;20032;-76
2023/12/03 05:45:18;;;;;;;1.80;1.20;;;6.40;80.30;;;;;;5074035;28;20032;-76
2023/12/03 05:47:44;;;;;;;1.67;1.00;;;6.40;81.30;;;;;;5056133;28;20041;-76
2023/12/03 05:50:10;;;;;;;1.73;1.20;;;6.40;81.10;;;;;;5074103;28;20035;-77
2023/12/03 05:52:36;;;;;;;2.10;1.30;;;6.30;82.20;;;;;;5074036;28;20044;-77
2023/12/03 05:55:02;;;;;;;1.20;0.80;;;6.30;83.10;;;;;;5073997;28;20127;-77
2023/12/03 05:57:27;;;;;;;1.63;1.07;;;6.30;83.10;;;;;;5073608;28;20480;-77
2023/12/03 05:59:53;;;;;;;1.30;1.00;;;6.40;81.50;;;;;;5073558;28;20115;-77
2023/12/03 06:02:20;;;;;;;1.40;0.90;;;6.30;80.40;;;;;;5074621;28;20462;-76
2023/12/03 06:04:46;;;;;;;2.00;1.00;;;6.30;80.90;;;;;;5074086;28;20036;-76
2023/12/03 06:07:12;;;;;;;1.57;1.10;;;6.30;81.30;;;;;;5074150;28;20111;-75
2023/12/03 06:09:38;;;;;;;1.43;0.90;;;6.30;81.90;;;;;;5074053;28;20082;-77
2023/12/03 06:12:05;;;;;;;1.43;1.03;;;6.30;81.70;;;;;;5073841;28;20107;-77
2023/12/03 06:14:54;;;;;;;1.80;1.10;;;6.20;81.70;;;;;;5073572;28;20373;-76
2023/12/03 06:17:32;;;;;;;1.50;1.13;;;6.20;83.40;;;;;;5064014;28;20064;-77
2023/12/03 06:20:48;;;;;;;2.00;1.20;;;6.20;85.50;;;;;;5073007;28;20040;-77
2023/12/03 06:23:29;;;;;;;3.43;1.50;;;6.20;86.10;;;;;;5054023;28;20683;-77
2023/12/03 06:25:59;;;;;;;1.80;1.30;;;6.20;87.00;;;;;;5073241;28;20119;-77
2023/12/03 06:28:30;;;;;;;1.60;1.03;;;6.10;86.70;;;;;;5073043;28;20044;-77
2023/12/03 06:31:18;;;;;;;1.60;1.10;;;6.10;86.80;;;;;;5073152;28;20420;-78
2023/12/03 06:33:50;;;;;;;1.67;1.07;;;6.00;87.60;;;;;;5073161;28;20396;-77
2023/12/03 06:36:30;;;;;;;1.90;1.27;;;6.00;89.00;;;;;;5073242;28;20115;-76
2023/12/03 06:38:56;;;;;;;2.23;1.43;;;6.00;89.80;;;;;;5073350;28;20040;-76
2023/12/03 06:41:25;;;;;;;3.20;2.17;;;6.00;90.90;;;;;;5072907;28;20089;-75
2023/12/03 06:43:51;;;;;;;3.13;1.53;;;6.00;91.30;;;;;;5072922;28;20037;-76
2023/12/03 06:46:17;;;;;;;2.60;1.67;;;6.00;91.10;;;;;;5073457;28;20506;-75
2023/12/03 06:48:43;;;;;;;3.43;1.83;;;6.00;91.00;;;;;;5072712;28;20439;-76
2023/12/03 06:51:09;;;;;;;2.53;1.70;;;5.90;90.70;;;;;;5054662;28;20051;-76
2023/12/03 06:53:35;;;;;;;2.93;2.07;;;5.90;91.20;;;;;;5079087;28;20071;-77
2023/12/03 06:56:01;;;;;;;2.97;1.73;;;5.90;91.40;;;;;;5092848;28;20090;-77
2023/12/03 06:58:27;;;;;;;2.53;1.60;;;5.90;91.30;;;;;;5074188;28;20139;-76
2023/12/03 07:00:52;;;;;;;2.13;1.50;;;5.90;91.20;;;;;;5073039;28;20041;-76
2023/12/03 07:03:18;;;;;;;2.77;1.50;;;5.90;90.80;;;;;;5072681;28;20036;-74
2023/12/03 07:05:44;;;;;;;2.03;1.30;;;5.90;90.00;;;;;;5058444;28;20039;-74
2023/12/03 07:08:10;;;;;;;2.20;1.60;;;5.90;88.10;;;;;;5081503;28;20040;-76
2023/12/03 07:10:36;;;;;;;2.40;1.60;;;5.90;87.30;;;;;;5072594;28;20039;-75
2023/12/03 07:13:02;;;;;;;2.50;1.63;;;5.90;88.10;;;;;;5072564;28;20094;-75
2023/12/03 07:15:27;;;;;;;4.03;1.60;;;5.90;89.70;;;;;;5052482;28;20056;-75
2023/12/03 07:17:53;;;;;;;2.67;1.60;;;5.90;90.00;;;;;;5053029;28;20095;-75
2023/12/03 07:20:19;;;;;;;2.87;1.70;;;5.90;90.30;;;;;;5052552;28;20033;-75
2023/12/03 07:22:45;;;;;;;2.63;1.70;;;5.90;90.60;;;;;;5052790;28;20040;-76
2023/12/03 07:25:11;;;;;;;2.50;1.77;;;5.90;91.20;;;;;;5052583;28;20029;-75
2023/12/03 07:27:37;;;;;;;3.10;2.20;;;6.00;91.30;;;;;;5052372;28;20049;-77
2023/12/03 07:30:03;;;;;;;3.03;1.67;;;6.00;91.20;;;;;;5052503;28;20036;-76
2023/12/03 07:32:29;;;;;;;3.83;1.53;;;6.00;91.30;;;;;;5052434;28;20033;-75
2023/12/03 07:34:55;;;;;;;3.00;2.00;;;6.00;91.50;;;;;;5052040;28;20025;-75
2023/12/03 07:37:21;;;;;;;3.03;1.90;;;6.00;91.40;;;;;;5052459;28;20033;-75
2023/12/03 07:39:46;;;;;;;3.80;2.60;;;6.10;91.50;;;;;;5052861;28;20063;-75
2023/12/03 07:42:13;;;;;;;3.17;2.33;;;6.10;91.60;;;;;;5052621;28;20037;-75
2023/12/03 07:44:38;;;;;;;5.83;3.00;;;6.20;91.70;;;;;;5053192;28;20413;-75
2023/12/03 07:47:04;;;;;;;4.33;2.80;;;6.20;91.50;;;;;;5052868;28;20047;-74
2023/12/03 07:49:30;;;;;;;2.87;2.13;;;6.30;91.80;;;;;;5065029;28;20041;-76
2023/12/03 07:51:56;;;;;;;3.40;1.73;;;6.30;90.60;;;;;;5055627;28;20033;-75
2023/12/03 07:54:25;;;;;;;2.20;1.40;;;6.40;90.50;;;;;;5065728;28;20041;-75
2023/12/03 07:56:51;;;;;;;2.23;1.60;;;6.40;90.30;;;;;;5062041;28;20136;-75
2023/12/03 07:59:17;;;;;;;2.20;1.33;;;6.50;88.80;;;;;;5051657;28;20044;-75
2023/12/03 08:01:43;;;;;;;2.50;1.43;;;6.60;88.40;;;;;;5072713;28;20032;-75
2023/12/03 08:04:09;;;;;;;2.70;1.70;;;6.70;87.30;;;;;;5073197;28;20051;-75
2023/12/03 08:06:35;;;;;;;2.63;1.60;;;6.70;86.00;;;;;;5073036;28;20040;-75
2023/12/03 08:09:01;;;;;;;2.17;1.23;;;6.80;85.00;;;;;;5073018;28;20041;-75
2023/12/03 08:11:30;;;;;;;2.20;1.40;;;6.90;83.90;;;;;;5072708;28;20374;-76
2023/12/03 08:13:56;;;;;;;2.73;1.57;;;6.90;84.10;;;;;;5054659;28;20071;-75
2023/12/03 08:16:23;;;;;;;2.63;1.63;;;6.90;84.20;;;;;;5071335;28;20033;-76
2023/12/03 08:18:52;;;;;;;2.50;1.57;;;7.00;84.90;;;;;;5072010;28;20125;-75
2023/12/03 08:21:18;;;;;;;2.17;1.60;;;7.00;84.50;;;;;;5072947;28;20435;-75
2023/12/03 08:23:44;;;;;;;1.90;1.30;;;7.00;84.10;;;;;;5076088;28;20040;-76
2023/12/03 08:26:09;;;;;;;2.30;1.13;;;7.10;84.00;;;;;;5076069;28;20048;-75
2023/12/03 08:28:35;;;;;;;2.90;1.53;;;7.10;83.40;;;;;;5076214;28;20496;-76
2023/12/03 08:31:02;;;;;;;2.17;1.53;;;7.10;83.00;;;;;;5076569;28;20041;-75
2023/12/03 08:33:28;;;;;;;2.23;1.40;;;7.20;82.90;;;;;;5076282;28;20044;-75
2023/12/03 08:35:54;;;;;;;6.93;4.27;;;7.20;83.10;;;;;;5076105;28;20089;-75
2023/12/03 08:38:19;;;;;;;5.10;2.83;;;7.20;82.40;;;;;;5076085;28;20041;-75
2023/12/03 08:40:45;;;;;;;4.53;1.47;;;7.30;79.50;;;;;;5075652;28;20041;-75
2023/12/03 08:43:11;;;;;;;13.23;7.43;;;7.30;80.00;;;;;;5075702;28;20116;-75
2023/12/03 08:45:37;;;;;;;11.87;7.27;;;7.30;78.80;;;;;;5075908;28;20032;-75
2023/12/03 08:48:03;;;;;;;3.43;2.27;;;7.30;79.30;;;;;;5075811;28;20044;-75
2023/12/03 08:50:31;;;;;;;3.63;2.60;;;7.30;79.70;;;;;;5075584;28;20058;-75
2023/12/03 08:52:58;;;;;;;1.90;1.40;;;7.30;78.60;;;;;;5075547;28;20034;-75
2023/12/03 08:55:24;;;;;;;2.10;1.67;;;7.30;77.70;;;;;;5075257;28;20424;-75
2023/12/03 08:57:50;;;;;;;2.70;1.40;;;7.40;77.20;;;;;;5075541;28;20036;-76
2023/12/03 09:00:16;;;;;;;3.50;2.43;;;7.30;77.20;;;;;;5075147;28;20029;-76
2023/12/03 09:02:46;;;;;;;2.97;2.00;;;7.30;76.20;;;;;;5075120;28;20033;-75
2023/12/03 09:05:12;;;;;;;2.97;1.67;;;7.30;76.40;;;;;;5075589;28;20032;-75
2023/12/03 09:07:38;;;;;;;2.80;1.97;;;7.20;75.60;;;;;;5074889;28;20040;-75
2023/12/03 09:10:05;;;;;;;6.40;2.70;;;7.20;76.70;;;;;;5057300;28;20396;-76
2023/12/03 09:12:31;;;;;;;3.70;2.37;;;7.20;78.10;;;;;;5075427;28;20029;-75
2023/12/03 09:14:56;;;;;;;3.77;2.40;;;7.10;78.40;;;;;;5075083;28;20047;-75
2023/12/03 09:17:22;;;;;;;3.20;2.20;;;7.10;78.00;;;;;;5075187;28;20093;-75
2023/12/03 09:19:49;;;;;;;2.90;1.90;;;7.10;77.80;;;;;;5075990;28;20499;-76
2023/12/03 09:22:15;;;;;;;2.40;1.60;;;7.10;78.80;;;;;;5075946;28;20059;-75
2023/12/03 09:24:41;;;;;;;3.27;1.93;;;7.10;75.90;;;;;;5075725;28;20098;-75
2023/12/03 09:27:07;;;;;;;4.10;1.90;;;7.10;75.70;;;;;;5075197;28;20048;-76
2023/12/03 09:29:33;;;;;;;2.80;1.80;;;7.10;75.90;;;;;;5075704;28;20439;-75
2023/12/03 09:31:59;;;;;;;2.40;1.53;;;7.10;76.80;;;;;;5075552;28;20427;-76
2023/12/03 09:34:25;;;;;;;3.73;1.90;;;7.00;77.00;;;;;;5071346;28;20032;-76
2023/12/03 09:36:51;;;;;;;2.50;1.87;;;7.00;77.10;;;;;;5072330;28;20084;-75
2023/12/03 09:39:17;;;;;;;2.50;1.60;;;7.00;78.00;;;;;;5074128;28;20042;-75
2023/12/03 09:41:51;;;;;;;2.63;1.70;;;7.00;78.50;;;;;;5075132;28;20037;-76
2023/12/03 09:44:26;;;;;;;2.20;1.47;;;7.00;77.40;;;;;;5074934;28;20435;-76
2023/12/03 09:46:54;;;;;;;4.20;1.70;;;7.10;74.00;;;;;;5074491;28;20036;-75
2023/12/03 09:49:25;;;;;;;3.40;2.20;;;7.10;74.00;;;;;;5074491;28;20412;-76
2023/12/03 09:51:56;;;;;;;2.80;1.90;;;7.00;74.70;;;;;;5073920;28;20036;-76
2023/12/03 09:54:22;;;;;;;3.10;2.00;;;7.00;74.70;;;;;;5074396;28;20032;-76
2023/12/03 09:56:55;;;;;;;2.73;1.77;;;7.00;73.50;;;;;;5074489;28;20035;-75
2023/12/03 09:59:21;;;;;;;3.33;2.13;;;7.00;73.20;;;;;;5071794;28;20459;-75
2023/12/03 10:01:49;;;;;;;2.83;2.03;;;7.00;74.20;;;;;;5071789;28;20225;-75
2023/12/03 10:04:14;;;;;;;3.63;2.07;;;6.90;74.40;;;;;;5053970;28;20362;-75
2023/12/03 10:06:45;;;;;;;3.70;2.30;;;6.90;74.50;;;;;;5073960;28;20158;-75
2023/12/03 10:09:13;;;;;;;3.47;2.20;;;6.90;75.70;;;;;;5056333;28;20512;-76
2023/12/03 10:11:40;;;;;;;3.67;2.33;;;7.00;75.20;;;;;;5074203;28;20029;-75
2023/12/03 10:14:09;;;;;;;3.57;2.27;;;7.00;75.80;;;;;;5055478;28;20055;-75
2023/12/03 10:16:35;;;;;;;3.33;2.20;;;7.00;76.10;;;;;;5083038;22;20099;-74
2023/12/03 10:19:01;;;;;;;4.10;1.90;;;7.10;75.30;;;;;;5053401;28;20037;-73
2023/12/03 10:21:27;;;;;;;3.70;2.20;;;7.10;75.20;;;;;;5053036;28;20033;-74
2023/12/03 10:23:58;;;;;;;2.60;2.00;;;7.10;76.10;;;;;;5058734;28;20048;-76
2023/12/03 10:26:24;;;;;;;2.27;1.90;;;7.20;75.60;;;;;;5073081;28;20506;-76
2023/12/03 10:28:49;;;;;;;2.70;1.90;;;7.20;74.10;;;;;;5072692;28;20127;-73
2023/12/03 10:31:17;;;;;;;5.80;2.43;;;7.20;75.00;;;;;;5068696;28;20091;-76
2023/12/03 10:33:44;;;;;;;3.00;2.03;;;7.20;73.80;;;;;;5055647;28;20476;-76
2023/12/03 10:36:11;;;;;;;3.77;2.50;;;7.30;74.20;;;;;;5073305;28;20040;-76
2023/12/03 10:38:42;;;;;;;4.83;2.90;;;7.30;73.90;;;;;;5073274;28;20028;-76
2023/12/03 10:41:13;;;;;;;4.10;2.07;;;7.40;73.60;;;;;;5073102;28;20025;-76
2023/12/03 10:43:42;;;;;;;2.30;1.77;;;7.50;72.40;;;;;;5073324;28;20455;-75
2023/12/03 10:46:13;;;;;;;3.67;2.13;;;7.60;69.80;;;;;;5073105;28;20028;-75
2023/12/03 10:48:39;;;;;;;2.97;2.13;;;7.70;70.90;;;;;;5073180;28;20047;-77
2023/12/03 10:51:10;;;;;;;3.23;2.23;;;7.80;70.40;;;;;;5073047;28;20029;-76
2023/12/03 10:53:39;;;;;;;2.60;1.87;;;7.90;69.30;;;;;;5072989;28;20033;-75
2023/12/03 10:56:07;;;;;;;3.37;2.03;;;7.90;69.80;;;;;;5072809;28;20024;-76
2023/12/03 10:58:37;;;;;;;3.17;2.03;;;8.00;69.80;;;;;;5072806;28;20033;-76
2023/12/03 11:01:19;;;;;;;3.43;2.03;;;8.10;71.10;;;;;;5072505;28;20492;-75
2023/12/03 11:04:02;;;;;;;4.23;1.93;;;8.20;68.50;;;;;;5054983;28;20540;-76
2023/12/03 11:06:33;;;;;;;2.63;1.80;;;8.20;67.60;;;;;;5072927;28;20059;-75
2023/12/03 11:08:59;;;;;;;3.93;2.43;;;8.20;67.60;;;;;;5072689;28;20048;-74
2023/12/03 11:11:26;;;;;;;2.83;2.07;;;8.20;67.90;;;;;;5073003;28;20029;-74
2023/12/03 11:13:57;;;;;;;2.40;1.70;;;8.30;68.80;;;;;;5054697;28;20033;-76
2023/12/03 11:16:27;;;;;;;3.30;2.17;;;8.30;66.90;;;;;;5072777;28;20036;-76
2023/12/03 11:19:16;;;;;;;2.87;2.20;;;8.30;68.30;;;;;;5072860;28;20488;-76
2023/12/03 11:21:58;;;;;;;3.70;2.53;;;8.40;69.00;;;;;;5072676;28;20040;-76
2023/12/03 11:24:42;;;;;;;3.47;2.70;;;8.40;68.50;;;;;;5072474;28;20029;-76
2023/12/03 11:27:09;;;;;;;4.10;2.00;;;8.40;68.20;;;;;;5072701;28;20068;-76
2023/12/03 11:29:52;;;;;;;3.10;2.30;;;8.40;67.20;;;;;;5072499;28;20041;-76
2023/12/03 11:32:21;;;;;;;3.03;2.20;;;8.40;65.90;;;;;;5072653;28;20033;-76
2023/12/03 11:35:00;;;;;;;3.60;2.00;;;8.40;66.50;;;;;;5054515;28;20043;-76
2023/12/03 11:37:30;;;;;;;3.07;2.30;;;8.50;66.50;;;;;;5072644;28;20059;-73
2023/12/03 11:40:11;;;;;;;4.20;2.57;;;8.50;67.30;;;;;;5072582;28;20082;-76
2023/12/03 11:42:46;;;;;;;4.67;3.10;;;8.50;67.50;;;;;;5070283;28;20041;-75
2023/12/03 11:45:19;;;;;;;4.23;2.20;;;8.60;67.00;;;;;;5072339;28;20564;-76
2023/12/03 11:48:04;;;;;;;3.63;2.57;;;8.60;66.90;;;;;;5072218;28;20044;-74
2023/12/03 11:50:31;;;;;;;3.97;2.80;;;8.60;68.10;;;;;;5072391;28;20047;-73
2023/12/03 11:52:57;;;;;;;6.00;2.70;;;8.70;66.60;;;;;;5072343;28;20036;-73
2023/12/03 11:55:27;;;;;;;3.30;2.00;;;8.70;66.30;;;;;;5052389;28;20033;-73
2023/12/03 11:57:55;;;;;;;4.00;2.50;;;8.70;66.90;;;;;;5054702;28;20033;-74
2023/12/03 12:00:24;;;;;;;6.23;2.37;;;8.80;67.70;;;;;;5052414;28;20086;-76
2023/12/03 12:02:51;;;;;;;2.77;2.23;;;8.80;68.10;;;;;;5053836;28;20033;-76
2023/12/03 12:05:23;;;;;;;5.77;3.37;;;8.80;68.10;;;;;;5056245;28;20029;-76
2023/12/03 12:08:03;;;;;;;4.23;2.47;;;8.90;67.80;;;;;;5056109;28;20393;-76
2023/12/03 12:10:31;;;;;;;3.90;2.53;;;8.90;66.70;;;;;;5055852;28;20033;-76
2023/12/03 12:13:02;;;;;;;4.03;2.60;;;8.90;65.30;;;;;;5056127;28;20032;-76
2023/12/03 12:15:30;;;;;;;3.63;2.60;;;8.90;64.50;;;;;;5055776;28;20036;-76
2023/12/03 12:17:57;;;;;;;3.73;2.30;;;8.90;64.50;;;;;;5055638;28;20099;-76
2023/12/03 12:20:28;;;;;;;2.60;2.00;;;8.80;65.80;;;;;;5055591;28;20044;-74
2023/12/03 12:22:56;;;;;;;3.13;2.23;;;8.80;65.20;;;;;;5054937;28;20794;-76
2023/12/03 12:25:27;;;;;;;4.23;2.40;;;8.80;65.80;;;;;;5051767;28;20048;-76
2023/12/03 12:27:55;;;;;;;4.60;2.50;;;8.80;64.50;;;;;;5053089;28;20072;-76
2023/12/03 12:30:28;;;;;;;3.37;2.33;;;8.80;63.10;;;;;;5054581;28;20032;-74
2023/12/03 12:32:57;;;;;;;2.70;2.30;;;8.80;64.20;;;;;;5055795;28;20036;-76
2023/12/03 12:35:26;;;;;;;3.93;2.23;;;8.70;64.70;;;;;;5054466;28;20041;-76
2023/12/03 12:38:04;;;;;;;3.00;2.43;;;8.70;63.90;;;;;;5055351;28;20033;-76
2023/12/03 12:40:31;;;;;;;4.00;2.50;;;8.70;65.00;;;;;;5054007;28;20132;-75
2023/12/03 12:43:06;;;;;;;5.03;2.53;;;8.70;64.80;;;;;;5055358;28;20464;-76
2023/12/03 12:45:32;;;;;;;3.67;2.57;;;8.70;63.00;;;;;;5055126;28;20493;-73
2023/12/03 12:48:01;;;;;;;4.83;2.50;;;8.60;63.80;;;;;;5055309;28;20129;-73
2023/12/03 12:50:39;;;;;;;4.97;2.50;;;8.60;65.20;;;;;;5055467;28;20409;-75
2023/12/03 12:53:07;;;;;;;3.97;2.47;;;8.60;65.10;;;;;;5055041;28;20033;-76
2023/12/03 12:55:35;;;;;;;3.93;2.73;;;8.60;64.20;;;;;;5074544;28;20143;-76
2023/12/03 12:58:05;;;;;;;3.30;2.47;;;8.60;64.60;;;;;;5057275;28;20431;-76
2023/12/03 13:00:32;;;;;;;4.50;2.60;;;8.50;64.10;;;;;;5074829;28;20082;-76
2023/12/03 13:03:03;;;;;;;3.47;2.73;;;8.50;63.30;;;;;;5075235;28;20504;-76
2023/12/03 13:05:30;;;;;;;4.50;2.87;;;8.50;64.00;;;;;;5074906;28;20025;-76